Time;durP1;ratioP1;P1;durP2;ratioP2;P2;SDS_P1;SDS_P2;PMS_P1;PMS_P2;Temp;Humidity;BMP_temperature;BMP_pressure;BME280_temperature;BME280_humidity;BME280_pressure;Samples;Min_cycle;Max_cycle;Signal;HPM_P1;HPM_P2
2022/04/14 00:02:17;;;;;;;;;;;14.30;99.90;;;;;;5028344;28;19931;-70
2022/04/14 00:04:43;;;;;;;;;;;14.30;99.90;;;;;;5038448;28;19920;-71
2022/04/14 00:07:08;;;;;;;;;;;14.30;99.90;;;;;;5039567;28;19920;-70
2022/04/14 00:09:35;;;;;;;;;;;14.20;99.90;;;;;;5038645;28;19964;-70
2022/04/14 00:12:01;;;;;;;;;;;14.10;99.90;;;;;;5034818;28;19919;-70
2022/04/14 00:14:26;;;;;;;;;;;14.10;99.90;;;;;;5037408;28;19909;-70
2022/04/14 00:16:52;;;;;;;;;;;14.10;99.90;;;;;;5036824;28;19920;-70
2022/04/14 00:19:17;;;;;;;;;;;14.10;99.90;;;;;;5039489;28;20344;-70
2022/04/14 00:21:43;;;;;;;;;;;14.10;99.90;;;;;;5035229;28;19917;-70
2022/04/14 00:24:08;;;;;;;;;;;14.00;99.90;;;;;;5038967;28;19956;-70
2022/04/14 00:26:34;;;;;;;;;;;14.00;99.90;;;;;;5037258;28;19915;-71
2022/04/14 00:28:59;;;;;;;;;;;14.00;99.90;;;;;;5037725;28;20015;-70
2022/04/14 00:31:24;;;;;;;;;;;14.00;99.90;;;;;;5035535;28;19960;-70
2022/04/14 00:33:50;;;;;;;;;;;14.00;99.90;;;;;;5035007;28;20007;-70
2022/04/14 00:36:15;;;;;;;;;;;14.00;99.90;;;;;;5037685;28;19952;-70
2022/04/14 00:38:41;;;;;;;;;;;14.00;99.90;;;;;;5034950;28;19913;-70
2022/04/14 00:41:06;;;;;;;;;;;14.00;99.90;;;;;;5034876;28;19915;-70
2022/04/14 00:43:33;;;;;;;;;;;13.90;99.90;;;;;;5035208;28;19928;-70
2022/04/14 00:45:59;;;;;;;;;;;13.90;99.90;;;;;;5037382;28;19923;-70
2022/04/14 00:48:25;;;;;;;;;;;13.90;99.90;;;;;;5035556;28;20370;-70
2022/04/14 00:50:50;;;;;;;;;;;13.90;99.90;;;;;;5036360;28;19947;-70
2022/04/14 00:53:16;;;;;;;;;;;13.90;99.90;;;;;;5035037;28;19909;-70
2022/04/14 00:55:41;;;;;;;;;;;13.90;99.90;;;;;;5036966;28;19920;-70
2022/04/14 00:58:07;;;;;;;;;;;13.80;99.90;;;;;;5034985;28;19935;-70
2022/04/14 01:00:32;;;;;;;;;;;13.80;99.90;;;;;;5035869;28;19917;-70
2022/04/14 01:02:58;;;;;;;;;;;13.80;99.90;;;;;;5035931;28;19913;-70
2022/04/14 01:05:24;;;;;;;;;;;13.80;99.90;;;;;;5037933;28;20294;-70
2022/04/14 01:07:49;;;;;;;;;;;13.80;99.90;;;;;;5035411;28;20007;-70
2022/04/14 01:10:16;;;;;;;;;;;13.80;99.90;;;;;;5035414;28;20004;-70
2022/04/14 01:12:42;;;;;;;;;;;13.80;99.90;;;;;;5036242;28;19952;-70
2022/04/14 01:15:10;;;;;;;;;;;13.80;99.90;;;;;;5037126;28;20497;-70
2022/04/14 01:17:35;;;;;;;;;;;13.70;99.90;;;;;;5038283;28;19937;-70
2022/04/14 01:20:01;;;;;;;;;;;13.70;99.90;;;;;;5035403;28;19947;-70
2022/04/14 01:22:30;;;;;;;;;;;13.70;99.90;;;;;;5037501;28;19967;-70
2022/04/14 01:24:57;;;;;;;;;;;13.70;99.90;;;;;;5034469;28;19916;-70
2022/04/14 01:27:23;;;;;;;;;;;13.60;99.90;;;;;;5037225;28;19913;-70
2022/04/14 01:29:51;;;;;;;;;;;13.60;99.90;;;;;;5035990;28;19928;-70
2022/04/14 01:32:21;;;;;;;;;;;13.50;99.90;;;;;;5034871;28;19913;-70
2022/04/14 01:34:46;;;;;;;;;;;13.50;99.90;;;;;;5035331;28;19917;-70
2022/04/14 01:37:12;;;;;;;;;;;13.50;99.90;;;;;;5037923;28;19919;-70
2022/04/14 01:39:38;;;;;;;;;;;13.50;99.90;;;;;;5034456;28;19964;-70
2022/04/14 01:42:04;;;;;;;;;;;13.50;99.90;;;;;;5037037;28;20292;-70
2022/04/14 01:44:30;;;;;;;;;;;13.50;99.90;;;;;;5035423;28;20357;-70
2022/04/14 01:46:55;;;;;;;;;;;13.50;99.90;;;;;;5037411;28;19952;-70
2022/04/14 01:49:21;;;;;;;;;;;13.50;99.90;;;;;;5034318;28;19925;-70
2022/04/14 01:51:48;;;;;;;;;;;13.50;99.90;;;;;;5035970;28;19917;-70
2022/04/14 01:54:13;;;;;;;;;;;13.50;99.90;;;;;;5034118;28;19917;-70
2022/04/14 01:56:39;;;;;;;;;;;13.50;99.90;;;;;;5041334;28;20428;-70
2022/04/14 01:59:04;;;;;;;;;;;13.50;99.90;;;;;;5041021;28;19913;-70
2022/04/14 02:01:30;;;;;;;;;;;13.50;99.90;;;;;;5040246;28;19917;-70
2022/04/14 02:03:57;;;;;;;;;;;13.50;99.90;;;;;;5040454;28;19917;-70
2022/04/14 02:06:22;;;;;;;;;;;13.50;99.90;;;;;;5040688;28;19936;-70
2022/04/14 02:08:47;;;;;;;;;;;13.50;99.90;;;;;;5039030;28;19913;-70
2022/04/14 02:11:13;;;;;;;;;;;13.50;99.90;;;;;;5038017;28;20349;-70
2022/04/14 02:13:39;;;;;;;;;;;13.60;99.90;;;;;;5038679;28;20396;-70
2022/04/14 02:16:04;;;;;;;;;;;13.50;99.90;;;;;;5038949;28;20400;-70
2022/04/14 02:18:30;;;;;;;;;;;13.60;99.90;;;;;;5040538;28;19967;-70
2022/04/14 02:20:55;;;;;;;;;;;13.60;99.90;;;;;;5041483;28;19963;-70
2022/04/14 02:23:22;;;;;;;;;;;13.60;99.90;;;;;;5037685;28;20293;-70
2022/04/14 02:25:47;;;;;;;;;;;13.60;99.90;;;;;;5040548;28;19924;-70
2022/04/14 02:28:15;;;;;;;;;;;13.60;99.90;;;;;;5039145;28;19917;-70
2022/04/14 02:30:41;;;;;;;;;;;13.50;99.90;;;;;;5038441;28;19917;-70
2022/04/14 02:33:06;;;;;;;;;;;13.50;99.90;;;;;;5037170;28;19928;-70
2022/04/14 02:35:32;;;;;;;;;;;13.50;99.90;;;;;;5038717;28;20324;-70
2022/04/14 02:37:57;;;;;;;;;;;13.40;99.90;;;;;;5036409;28;19913;-70
2022/04/14 02:40:24;;;;;;;;;;;13.40;99.90;;;;;;5039607;28;19936;-70
2022/04/14 02:42:57;;;;;;;;;;;13.50;99.90;;;;;;5037761;28;20015;-70
2022/04/14 02:45:23;;;;;;;;;;;13.40;99.90;;;;;;5039676;28;19932;-70
2022/04/14 02:47:48;;;;;;;;;;;13.40;99.90;;;;;;5035184;28;20063;-70
2022/04/14 02:50:14;;;;;;;;;;;13.40;99.90;;;;;;5036979;28;20011;-70
2022/04/14 02:52:39;;;;;;;;;;;13.40;99.90;;;;;;5036318;28;19918;-70
2022/04/14 02:55:05;;;;;;;;;;;13.40;99.90;;;;;;5038150;28;20403;-70
2022/04/14 02:57:30;;;;;;;;;;;13.30;99.90;;;;;;5037833;28;20057;-70
2022/04/14 02:59:56;;;;;;;;;;;13.30;99.90;;;;;;5036853;28;19916;-70
2022/04/14 03:02:22;;;;;;;;;;;13.30;99.90;;;;;;5039105;28;19952;-70
2022/04/14 03:04:47;;;;;;;;;;;13.30;99.90;;;;;;5038769;28;20012;-70
2022/04/14 03:07:13;;;;;;;;;;;13.30;99.90;;;;;;5033485;28;19920;-70
2022/04/14 03:09:38;;;;;;;;;;;13.40;99.90;;;;;;5039557;28;20011;-70
2022/04/14 03:12:04;;;;;;;;;;;13.40;99.90;;;;;;5039632;28;20000;-70
2022/04/14 03:14:29;;;;;;;;;;;13.40;99.90;;;;;;5040314;28;20317;-70
2022/04/14 03:16:57;;;;;;;;;;;13.30;99.90;;;;;;5039765;28;19924;-70
2022/04/14 03:19:22;;;;;;;;;;;13.30;99.90;;;;;;5040121;28;19921;-70
2022/04/14 03:21:48;;;;;;;;;;;13.40;99.90;;;;;;5040437;28;19917;-70
2022/04/14 03:24:13;;;;;;;;;;;13.30;99.90;;;;;;5040272;28;19909;-70
2022/04/14 03:26:38;;;;;;;;;;;13.30;99.90;;;;;;5039138;28;20598;-70
2022/04/14 03:29:04;;;;;;;;;;;13.40;99.90;;;;;;5037908;28;20348;-70
2022/04/14 03:31:30;;;;;;;;;;;13.30;99.90;;;;;;5038051;28;20441;-70
2022/04/14 03:33:56;;;;;;;;;;;13.30;99.90;;;;;;5036276;28;20354;-70
2022/04/14 03:36:21;;;;;;;;;;;13.30;99.90;;;;;;5036224;28;19922;-70
2022/04/14 03:38:47;;;;;;;;;;;13.30;99.90;;;;;;5038704;28;20366;-71
2022/04/14 03:41:12;;;;;;;;;;;13.30;99.90;;;;;;5031857;28;20015;-70
2022/04/14 03:43:37;;;;;;;;;;;13.30;99.90;;;;;;5038874;28;19947;-70
2022/04/14 03:46:03;;;;;;;;;;;13.30;99.90;;;;;;5037562;28;19917;-70
2022/04/14 03:48:29;;;;;;;;;;;13.30;99.90;;;;;;5038442;28;20350;-70
2022/04/14 03:50:54;;;;;;;;;;;13.30;99.90;;;;;;5035368;28;19983;-70
2022/04/14 03:53:20;;;;;;;;;;;13.30;99.90;;;;;;5036292;28;19913;-70
2022/04/14 03:55:48;;;;;;;;;;;13.30;99.90;;;;;;5037941;28;19988;-70
2022/04/14 03:58:14;;;;;;;;;;;13.40;99.90;;;;;;5039897;28;19984;-70
2022/04/14 04:00:40;;;;;;;;;;;13.40;99.90;;;;;;5036535;28;19916;-72
2022/04/14 04:03:08;;;;;;;;;;;13.40;99.90;;;;;;5039395;28;20381;-70
2022/04/14 04:05:33;;;;;;;;;;;13.40;99.90;;;;;;5036234;28;19971;-70
2022/04/14 04:07:58;;;;;;;;;;;13.40;99.90;;;;;;5039136;28;20393;-72
2022/04/14 04:10:24;;;;;;;;;;;13.50;99.90;;;;;;5032946;28;20016;-71
2022/04/14 04:12:49;;;;;;;;;;;13.50;99.90;;;;;;5034021;28;20008;-72
2022/04/14 04:15:15;;;;;;;;;;;13.50;99.90;;;;;;5029570;28;19917;-71
2022/04/14 04:17:40;;;;;;;;;;;13.50;99.90;;;;;;5032611;28;19921;-70
2022/04/14 04:20:06;;;;;;;;;;;13.50;99.90;;;;;;5035525;28;19928;-70
2022/04/14 04:22:35;;;;;;;;;;;13.40;99.90;;;;;;5033743;28;20012;-70
2022/04/14 04:25:00;;;;;;;;;;;13.40;99.90;;;;;;5036961;28;19991;-70
2022/04/14 04:27:26;;;;;;;;;;;13.40;99.90;;;;;;5033561;28;20003;-70
2022/04/14 04:29:51;;;;;;;;;;;13.40;99.90;;;;;;5028828;28;19935;-71
2022/04/14 04:32:17;;;;;;;;;;;13.40;99.90;;;;;;5032613;28;20275;-71
2022/04/14 04:34:42;;;;;;;;;;;13.40;99.90;;;;;;5037740;28;19917;-71
2022/04/14 04:37:08;;;;;;;;;;;13.50;99.90;;;;;;5038340;28;20356;-71
2022/04/14 04:39:33;;;;;;;;;;;13.50;99.90;;;;;;5036902;28;20373;-71
2022/04/14 04:41:59;;;;;;;;;;;13.50;99.90;;;;;;5037877;28;19908;-71
2022/04/14 04:44:24;;;;;;;;;;;13.50;99.90;;;;;;5037047;28;20374;-72
2022/04/14 04:46:49;;;;;;;;;;;13.50;99.90;;;;;;5038949;28;19960;-72
2022/04/14 04:49:15;;;;;;;;;;;13.50;99.90;;;;;;5038612;28;19986;-72
2022/04/14 04:51:40;;;;;;;;;;;13.40;99.90;;;;;;5038374;28;20277;-71
2022/04/14 04:54:06;;;;;;;;;;;13.40;99.90;;;;;;5038404;28;20377;-72
2022/04/14 04:56:31;;;;;;;;;;;13.40;99.90;;;;;;5035633;28;19957;-72
2022/04/14 04:58:57;;;;;;;;;;;13.40;99.90;;;;;;5037074;28;19996;-72
2022/04/14 05:01:22;;;;;;;;;;;13.40;99.90;;;;;;5038587;28;19997;-73
2022/04/14 05:03:47;;;;;;;;;;;13.30;99.90;;;;;;5039454;28;19913;-73
2022/04/14 05:06:13;;;;;;;;;;;13.30;99.90;;;;;;5038801;28;19921;-81
2022/04/14 05:08:38;;;;;;;;;;;13.30;99.90;;;;;;5039125;28;19966;-71
2022/04/14 05:11:04;;;;;;;;;;;13.30;99.90;;;;;;5038019;28;20359;-75
2022/04/14 05:13:29;;;;;;;;;;;13.40;99.90;;;;;;5036662;28;19913;-70
2022/04/14 05:15:55;;;;;;;;;;;13.40;99.90;;;;;;5036009;28;19924;-70
2022/04/14 05:18:20;;;;;;;;;;;13.30;99.90;;;;;;5039075;28;19909;-70
2022/04/14 05:20:45;;;;;;;;;;;13.30;99.90;;;;;;5037749;28;19913;-70
2022/04/14 05:23:11;;;;;;;;;;;13.30;99.90;;;;;;5037965;28;19909;-71
2022/04/14 05:25:39;;;;;;;;;;;13.30;99.90;;;;;;5037938;28;19913;-70
2022/04/14 05:28:04;;;;;;;;;;;13.20;99.90;;;;;;5037601;28;19910;-70
2022/04/14 05:30:30;;;;;;;;;;;13.20;99.90;;;;;;5036506;28;20293;-70
2022/04/14 05:32:55;;;;;;;;;;;13.20;99.90;;;;;;5036581;28;19924;-70
2022/04/14 05:35:21;;;;;;;;;;;13.20;99.90;;;;;;5037372;28;19913;-70
2022/04/14 05:37:47;;;;;;;;;;;13.20;99.90;;;;;;5037966;28;19944;-70
2022/04/14 05:40:12;;;;;;;;;;;13.10;99.90;;;;;;5038288;28;20329;-70
2022/04/14 05:42:38;;;;;;;;;;;13.10;99.90;;;;;;5037944;28;19909;-70
2022/04/14 05:45:03;;;;;;;;;;;13.10;99.90;;;;;;5037651;28;19909;-70
2022/04/14 05:47:29;;;;;;;;;;;13.10;99.90;;;;;;5037986;28;20369;-70
2022/04/14 05:49:54;;;;;;;;;;;13.00;99.90;;;;;;5037483;28;19925;-70
2022/04/14 05:52:20;;;;;;;;;;;13.00;99.90;;;;;;5037844;28;20305;-70
2022/04/14 05:54:46;;;;;;;;;;;13.00;99.90;;;;;;5038082;28;20381;-70
2022/04/14 05:57:12;;;;;;;;;;;13.00;99.90;;;;;;5037338;28;20280;-70
2022/04/14 05:59:37;;;;;;;;;;;13.00;99.90;;;;;;5038438;28;19995;-70
2022/04/14 06:02:03;;;;;;;;;;;13.00;99.90;;;;;;5037564;28;20358;-70
2022/04/14 06:04:28;;;;;;;;;;;13.00;99.90;;;;;;5038349;28;19914;-70
2022/04/14 06:06:54;;;;;;;;;;;13.00;99.90;;;;;;5037891;28;19935;-71
2022/04/14 06:09:19;;;;;;;;;;;12.90;99.90;;;;;;5038913;28;20282;-71
2022/04/14 06:11:45;;;;;;;;;;;12.90;99.90;;;;;;5038380;28;19909;-71
2022/04/14 06:14:10;;;;;;;;;;;12.90;99.90;;;;;;5038530;28;19913;-71
2022/04/14 06:16:35;;;;;;;;;;;12.90;99.90;;;;;;5038305;28;19916;-70
2022/04/14 06:19:01;;;;;;;;;;;12.80;99.90;;;;;;5038445;28;19939;-71
2022/04/14 06:21:27;;;;;;;;;;;12.80;99.90;;;;;;5038266;28;20003;-70
2022/04/14 06:23:52;;;;;;;;;;;12.80;99.90;;;;;;5037728;28;19956;-71
2022/04/14 06:26:17;;;;;;;;;;;12.80;99.90;;;;;;5037954;28;19916;-70
2022/04/14 06:28:46;;;;;;;;;;;12.70;99.90;;;;;;5037590;28;19976;-70
2022/04/14 06:31:12;;;;;;;;;;;12.80;99.90;;;;;;5037983;28;20316;-71
2022/04/14 06:33:37;;;;;;;;;;;12.80;99.90;;;;;;5037043;28;19913;-70
2022/04/14 06:36:03;;;;;;;;;;;12.80;99.90;;;;;;5038090;28;19913;-70
2022/04/14 06:38:28;;;;;;;;;;;12.80;99.90;;;;;;5037688;28;19912;-71
2022/04/14 06:40:54;;;;;;;;;;;12.80;99.90;;;;;;5041423;28;19913;-71
2022/04/14 06:43:20;;;;;;;;;;;12.90;99.90;;;;;;5041569;28;19916;-71
2022/04/14 06:45:46;;;;;;;;;;;12.90;99.90;;;;;;5041323;28;19916;-71
2022/04/14 06:48:11;;;;;;;;;;;12.90;99.90;;;;;;5040530;28;20781;-71
2022/04/14 06:50:37;;;;;;;;;;;12.90;99.90;;;;;;5040702;28;19913;-71
2022/04/14 06:53:02;;;;;;;;;;;12.90;99.90;;;;;;5040766;28;19913;-71
2022/04/14 06:55:28;;;;;;;;;;;13.00;99.90;;;;;;5040266;28;19913;-71
2022/04/14 06:57:53;;;;;;;;;;;13.00;99.90;;;;;;5040801;28;19913;-71
2022/04/14 07:00:21;;;;;;;;;;;13.00;99.90;;;;;;5041352;28;19923;-71
2022/04/14 07:02:47;;;;;;;;;;;13.00;99.90;;;;;;5040809;28;19917;-72
2022/04/14 07:05:12;;;;;;;;;;;13.00;99.90;;;;;;5040929;28;19917;-71
2022/04/14 07:07:38;;;;;;;;;;;12.90;99.90;;;;;;5041383;28;19919;-72
2022/04/14 07:10:03;;;;;;;;;;;13.00;99.90;;;;;;5040771;28;19955;-71
2022/04/14 07:12:29;;;;;;;;;;;12.90;99.90;;;;;;5040842;28;19936;-71
2022/04/14 07:14:54;;;;;;;;;;;12.90;99.90;;;;;;5040688;28;19917;-71
2022/04/14 07:17:22;;;;;;;;;;;13.00;99.90;;;;;;5040952;28;19959;-71
2022/04/14 07:19:47;;;;;;;;;;;13.00;99.90;;;;;;5040663;28;19992;-72
2022/04/14 07:22:15;;;;;;;;;;;13.00;99.90;;;;;;5040814;28;19999;-72
2022/04/14 07:24:41;;;;;;;;;;;12.90;99.90;;;;;;5040348;28;19917;-72
2022/04/14 07:27:06;;;;;;;;;;;13.00;99.90;;;;;;5039918;28;19975;-72
2022/04/14 07:29:32;;;;;;;;;;;12.90;99.90;;;;;;5040546;28;19924;-72
2022/04/14 07:31:57;;;;;;;;;;;12.90;99.90;;;;;;5040180;28;19913;-72
2022/04/14 07:34:23;;;;;;;;;;;12.90;99.90;;;;;;5040194;28;19959;-72
2022/04/14 07:36:48;;;;;;;;;;;12.90;99.90;;;;;;5040294;28;19951;-72
2022/04/14 07:39:14;;;;;;;;;;;12.80;99.90;;;;;;5039862;28;19945;-71
2022/04/14 07:41:39;;;;;;;;;;;12.80;99.90;;;;;;5040211;28;19913;-72
2022/04/14 07:44:05;;;;;;;;;;;12.90;99.90;;;;;;5038311;28;20365;-72
2022/04/14 07:46:30;;;;;;;;;;;12.90;99.90;;;;;;5039713;28;19963;-72
2022/04/14 07:48:56;;;;;;;;;;;12.90;99.90;;;;;;5039952;28;19913;-72
2022/04/14 07:51:21;;;;;;;;;;;12.90;99.90;;;;;;5038483;28;19917;-72
2022/04/14 07:53:46;;;;;;;;;;;12.90;99.90;;;;;;5039747;28;20289;-72
2022/04/14 07:56:12;;;;;;;;;;;12.90;99.90;;;;;;5039533;28;20388;-72
2022/04/14 07:58:38;;;;;;;;;;;13.00;99.90;;;;;;5040264;28;19920;-72
2022/04/14 08:01:04;;;;;;;;;;;12.90;99.90;;;;;;5039785;28;19990;-72
2022/04/14 08:03:29;;;;;;;;;;;12.90;99.90;;;;;;5040515;28;20347;-72
2022/04/14 08:05:55;;;;;;;;;;;12.90;99.90;;;;;;5040085;28;19924;-72
2022/04/14 08:08:21;;;;;;;;;;;12.90;99.90;;;;;;5040196;28;19984;-72
2022/04/14 08:10:47;;;;;;;;;;;12.90;99.90;;;;;;5040043;28;19996;-72
2022/04/14 08:13:15;;;;;;;;;;;13.00;99.90;;;;;;5039182;28;21279;-72
2022/04/14 08:15:40;;;;;;;;;;;13.00;99.90;;;;;;5039251;28;20357;-72
2022/04/14 08:18:07;;;;;;;;;;;13.10;99.90;;;;;;5040035;28;19955;-72
2022/04/14 08:20:34;;;;;;;;;;;13.10;99.90;;;;;;5039859;28;19913;-72
2022/04/14 08:23:00;;;;;;;;;;;13.10;99.90;;;;;;5039654;28;19909;-72
2022/04/14 08:25:27;;;;;;;;;;;13.10;99.90;;;;;;5039525;28;20364;-72
2022/04/14 08:27:53;;;;;;;;;;;13.20;99.90;;;;;;5037598;28;20357;-72
2022/04/14 08:30:19;;;;;;;;;;;13.20;99.90;;;;;;5038432;28;19921;-72
2022/04/14 08:32:45;;;;;;;;;;;13.20;99.90;;;;;;5039352;28;19919;-72
2022/04/14 08:35:11;;;;;;;;;;;13.20;99.90;;;;;;5038369;28;19947;-71
2022/04/14 08:37:37;;;;;;;;;;;13.20;99.90;;;;;;5039398;28;20350;-72
2022/04/14 08:40:05;;;;;;;;;;;13.30;99.90;;;;;;5039390;28;19991;-72
2022/04/14 08:42:39;;;;;;;;;;;13.20;99.90;;;;;;5038758;28;20435;-71
2022/04/14 08:45:07;;;;;;;;;;;13.30;99.90;;;;;;5037887;28;19967;-72
2022/04/14 08:47:34;;;;;;;;;;;13.30;99.90;;;;;;5038739;28;20336;-71
2022/04/14 08:50:00;;;;;;;;;;;13.40;99.90;;;;;;5038575;28;19939;-72
2022/04/14 08:52:25;;;;;;;;;;;13.50;99.90;;;;;;5038435;28;19913;-72
2022/04/14 08:54:52;;;;;;;;;;;13.60;99.90;;;;;;5038385;28;19939;-72
2022/04/14 08:57:17;;;;;;;;;;;13.60;99.90;;;;;;5038431;28;20007;-72
2022/04/14 08:59:45;;;;;;;;;;;13.60;99.90;;;;;;5038576;28;20019;-72
2022/04/14 09:02:14;;;;;;;;;;;13.70;99.90;;;;;;5039093;28;19981;-72
2022/04/14 09:04:43;;;;;;;;;;;13.70;99.90;;;;;;5038747;28;20000;-71
2022/04/14 09:07:12;;;;;;;;;;;13.70;99.90;;;;;;5039212;28;20277;-72
2022/04/14 09:09:38;;;;;;;;;;;13.80;99.90;;;;;;5038827;28;19920;-72
2022/04/14 09:12:04;;;;;;;;;;;13.80;99.90;;;;;;5037750;28;19965;-72
2022/04/14 09:14:34;;;;;;;;;;;13.90;99.90;;;;;;5038711;28;19919;-71
2022/04/14 09:17:00;;;;;;;;;;;13.90;99.90;;;;;;5038777;28;19913;-72
2022/04/14 09:19:27;;;;;;;;;;;14.00;99.90;;;;;;5038730;28;20384;-72
2022/04/14 09:22:10;;;;;;;;;;;14.10;99.90;;;;;;5038459;28;20000;-72
2022/04/14 09:24:39;;;;;;;;;;;14.20;99.90;;;;;;5038385;28;20297;-71
2022/04/14 09:27:04;;;;;;;;;;;14.20;99.90;;;;;;5038170;28;19909;-72
2022/04/14 09:29:30;;;;;;;;;;;14.30;99.90;;;;;;5038541;28;19986;-71
2022/04/14 09:31:55;;;;;;;;;;;14.30;99.90;;;;;;5038320;28;19917;-71
2022/04/14 09:34:40;;;;;;;;;;;14.40;99.90;;;;;;5037962;28;20320;-72
2022/04/14 09:37:07;;;;;;;;;;;14.40;99.90;;;;;;5037651;28;20365;-71
2022/04/14 09:39:51;;;;;;;;;;;14.50;99.90;;;;;;5038064;28;19995;-71
2022/04/14 09:42:19;;;;;;;;;;;14.60;99.90;;;;;;5037767;28;19967;-72
2022/04/14 09:44:45;;;;;;;;;;;14.60;99.90;;;;;;5038248;28;19917;-72
2022/04/14 09:47:10;;;;;;;;;;;14.60;99.90;;;;;;5037970;28;19909;-71
2022/04/14 09:49:42;;;;;;;;;;;14.60;99.90;;;;;;5037992;28;19947;-72
2022/04/14 09:52:07;;;;;;;;;;;14.60;99.90;;;;;;5037891;28;20313;-71
2022/04/14 09:54:33;;;;;;;;;;;14.60;99.90;;;;;;5037156;28;20449;-72
2022/04/14 09:56:59;;;;;;;;;;;14.70;99.90;;;;;;5037685;28;19917;-71
2022/04/14 09:59:28;;;;;;;;;;;14.70;99.90;;;;;;5038317;28;19909;-72
2022/04/14 10:02:09;;;;;;;;;;;14.80;99.90;;;;;;5038951;28;20269;-72
2022/04/14 10:04:36;;;;;;;;;;;14.80;99.90;;;;;;5038478;28;19988;-72
2022/04/14 10:07:12;;;;;;;;;;;14.70;99.90;;;;;;5039003;28;19939;-72
2022/04/14 10:09:39;;;;;;;;;;;14.70;99.90;;;;;;5038396;28;19964;-72
2022/04/14 10:12:24;;;;;;;;;;;14.70;99.90;;;;;;5038247;28;19913;-72
2022/04/14 10:14:56;;;;;;;;;;;14.70;99.90;;;;;;5039965;28;20324;-72
2022/04/14 10:17:23;;;;;;;;;;;14.80;99.90;;;;;;5040991;28;20383;-71
2022/04/14 10:19:49;;;;;;;;;;;14.80;99.90;;;;;;5041028;28;19923;-72
2022/04/14 10:22:14;;;;;;;;;;;14.80;99.90;;;;;;5041965;28;20019;-72
2022/04/14 10:24:39;;;;;;;;;;;14.90;99.90;;;;;;5041284;28;19929;-72
2022/04/14 10:27:06;;;;;;;;;;;14.90;99.90;;;;;;5041696;28;19920;-72
2022/04/14 10:29:32;;;;;;;;;;;14.90;99.90;;;;;;5041468;28;19912;-72
2022/04/14 10:31:58;;;;;;;;;;;14.90;99.90;;;;;;5040852;28;19921;-72
2022/04/14 10:34:23;;;;;;;;;;;15.00;99.90;;;;;;5041458;28;19949;-72
2022/04/14 10:36:49;;;;;;;;;;;15.00;99.90;;;;;;5041684;28;19948;-72
2022/04/14 10:39:16;;;;;;;;;;;15.00;99.90;;;;;;5041266;28;19916;-72
2022/04/14 10:41:44;;;;;;;;;;;15.00;99.90;;;;;;5040903;28;20011;-72
2022/04/14 10:44:10;;;;;;;;;;;15.10;99.90;;;;;;5041424;28;19913;-72
2022/04/14 10:46:40;;;;;;;;;;;15.10;99.90;;;;;;5041464;28;20388;-72
2022/04/14 10:49:12;;;;;;;;;;;15.10;99.90;;;;;;5040426;28;19962;-72
2022/04/14 10:51:37;;;;;;;;;;;15.10;99.90;;;;;;5040796;28;19995;-72
2022/04/14 10:54:04;;;;;;;;;;;15.10;99.90;;;;;;5040919;28;20442;-72
2022/04/14 10:56:39;;;;;;;;;;;15.20;99.90;;;;;;5040500;28;19909;-73
2022/04/14 10:59:05;;;;;;;;;;;15.30;99.90;;;;;;5040858;28;19916;-72
2022/04/14 11:01:52;;;;;;;;;;;15.40;99.90;;;;;;5040845;28;19913;-71
2022/04/14 11:04:20;;;;;;;;;;;15.50;99.90;;;;;;5041029;28;19913;-72
2022/04/14 11:06:47;;;;;;;;;;;15.70;99.90;;;;;;5040789;28;20008;-71
2022/04/14 11:09:32;;;;;;;;;;;15.80;99.90;;;;;;5040179;28;19920;-71
2022/04/14 11:11:59;;;;;;;;;;;16.00;99.90;;;;;;5040524;28;20004;-72
2022/04/14 11:14:24;;;;;;;;;;;16.10;99.90;;;;;;5040740;28;19955;-72
2022/04/14 11:16:50;;;;;;;;;;;16.20;99.90;;;;;;5041183;28;19909;-74
2022/04/14 11:19:18;;;;;;;;;;;16.30;99.90;;;;;;5040635;28;19955;-77
2022/04/14 11:22:14;;;;;;;;;;;16.40;99.90;;;;;;5040104;28;19971;-76
2022/04/14 11:24:40;;;;;;;;;;;16.60;99.90;;;;;;5023436;28;19948;-75
2022/04/14 11:27:15;;;;;;;;;;;16.70;99.90;;;;;;5040816;28;19996;-75
2022/04/14 11:29:43;;;;;;;;;;;16.80;99.90;;;;;;5038522;28;19917;-76
2022/04/14 11:32:08;;;;;;;;;;;16.90;99.90;;;;;;5039478;28;19971;-81
2022/04/14 11:34:34;;;;;;;;;;;17.00;99.90;;;;;;5039636;28;20393;-79
2022/04/14 11:37:01;;;;;;;;;;;17.10;99.90;;;;;;5040619;28;20003;-79
2022/04/14 11:39:27;;;;;;;;;;;17.20;99.90;;;;;;5040501;28;19913;-79
2022/04/14 11:41:53;;;;;;;;;;;17.40;99.90;;;;;;5040883;28;20532;-83
2022/04/14 11:44:25;;;;;;;;;;;17.60;99.90;;;;;;5040500;28;19909;-82
2022/04/14 11:46:52;;;;;;;;;;;17.70;99.90;;;;;;5040932;28;20364;-82
2022/04/14 11:49:19;;;;;;;;;;;17.80;99.90;;;;;;5041052;28;19908;-82
2022/04/14 11:51:45;;;;;;;;;;;17.90;99.90;;;;;;5041590;28;20285;-82
2022/04/14 11:54:11;;;;;;;;;;;18.00;99.90;;;;;;5042061;28;19909;-82
2022/04/14 11:56:37;;;;;;;;;;;18.10;99.90;;;;;;5043432;28;19913;-82
2022/04/14 11:59:08;;;;;;;;;;;18.10;99.90;;;;;;5042418;28;19919;-82
2022/04/14 12:01:34;;;;;;;;;;;18.20;99.90;;;;;;5042238;28;20428;-82
2022/04/14 12:03:59;;;;;;;;;;;18.40;99.90;;;;;;5042817;28;20289;-82
2022/04/14 12:06:25;;;;;;;;;;;18.50;99.90;;;;;;5043198;28;19925;-82
2022/04/14 12:08:55;;;;;;;;;;;18.70;99.90;;;;;;5043233;28;19913;-82
2022/04/14 12:11:20;;;;;;;;;;;18.80;99.80;;;;;;5041587;28;19924;-83
2022/04/14 12:13:46;;;;;;;;;;;18.80;99.30;;;;;;5042038;28;19909;-82
2022/04/14 12:16:12;;;;;;;;;;;18.90;99.50;;;;;;5043107;28;20373;-82
2022/04/14 12:18:39;;;;;;;;;;;18.90;99.30;;;;;;5041410;28;20288;-82
2022/04/14 12:21:04;;;;;;;;;;;18.80;98.70;;;;;;5041562;28;19912;-83
2022/04/14 12:23:31;;;;;;;;;;;18.80;99.00;;;;;;5041585;28;19913;-82
2022/04/14 12:25:57;;;;;;;;;;;18.90;99.00;;;;;;5040645;28;20340;-83
2022/04/14 12:28:23;;;;;;;;;;;18.90;98.90;;;;;;5041517;28;20376;-82
2022/04/14 12:30:49;;;;;;;;;;;18.90;98.80;;;;;;5040006;28;20433;-82
2022/04/14 12:33:14;;;;;;;;;;;18.90;99.00;;;;;;5040870;28;19913;-82
2022/04/14 12:35:41;;;;;;;;;;;19.00;98.80;;;;;;5040859;28;19912;-82
2022/04/14 12:38:17;;;;;;;;;;;19.00;98.90;;;;;;5038373;28;19919;-82
2022/04/14 12:40:57;;;;;;;;;;;19.00;98.70;;;;;;5039898;28;20337;-83
2022/04/14 12:43:23;;;;;;;;;;;19.00;98.50;;;;;;5039007;28;19932;-83
2022/04/14 12:45:49;;;;;;;;;;;19.00;98.40;;;;;;5039178;28;19917;-83
2022/04/14 12:48:24;;;;;;;;;;;19.10;98.20;;;;;;5038716;28;20757;-83
2022/04/14 12:50:53;;;;;;;;;;;19.20;98.00;;;;;;5038783;28;19917;-82
2022/04/14 12:53:22;;;;;;;;;;;19.30;98.20;;;;;;5038324;28;20410;-83
2022/04/14 12:55:47;;;;;;;;;;;19.30;97.80;;;;;;5038682;28;19959;-83
2022/04/14 12:58:13;;;;;;;;;;;19.30;98.10;;;;;;5038671;28;20382;-83
2022/04/14 13:00:39;;;;;;;;;;;19.30;98.00;;;;;;5039075;28;20396;-83
2022/04/14 13:03:13;;;;;;;;;;;19.10;98.00;;;;;;5039254;28;19931;-83
2022/04/14 13:05:42;;;;;;;;;;;19.10;98.10;;;;;;5038540;28;19917;-83
2022/04/14 13:08:08;;;;;;;;;;;19.10;98.00;;;;;;5039439;28;19915;-83
2022/04/14 13:10:38;;;;;;;;;;;19.20;97.90;;;;;;5038717;28;19913;-83
2022/04/14 13:13:04;;;;;;;;;;;19.20;97.30;;;;;;5039168;28;20312;-83
2022/04/14 13:15:29;;;;;;;;;;;19.20;97.60;;;;;;5038792;28;19909;-83
2022/04/14 13:17:56;;;;;;;;;;;19.30;97.40;;;;;;5038452;28;19913;-83
2022/04/14 13:20:23;;;;;;;;;;;19.30;97.50;;;;;;5038798;28;19909;-83
2022/04/14 13:22:51;;;;;;;;;;;19.40;97.20;;;;;;5020948;28;19913;-83
2022/04/14 13:25:17;;;;;;;;;;;19.60;96.80;;;;;;5038418;28;19962;-83
2022/04/14 13:27:42;;;;;;;;;;;19.60;96.50;;;;;;5038437;28;19944;-83
2022/04/14 13:30:08;;;;;;;;;;;19.70;96.80;;;;;;5038567;28;19917;-83
2022/04/14 13:32:34;;;;;;;;;;;19.80;96.30;;;;;;5038455;28;19936;-83
2022/04/14 13:34:59;;;;;;;;;;;19.80;96.50;;;;;;5039129;28;19966;-83
2022/04/14 13:37:25;;;;;;;;;;;19.90;96.50;;;;;;5038262;28;19916;-83
2022/04/14 13:39:50;;;;;;;;;;;20.00;96.10;;;;;;5038698;28;19924;-83
2022/04/14 13:42:16;;;;;;;;;;;20.00;96.10;;;;;;5038098;28;19992;-83
2022/04/14 13:44:42;;;;;;;;;;;20.00;95.80;;;;;;5039018;28;20447;-83
2022/04/14 13:47:08;;;;;;;;;;;20.00;96.00;;;;;;5037953;28;19916;-83
2022/04/14 13:49:34;;;;;;;;;;;20.00;95.80;;;;;;5042092;28;19916;-83
2022/04/14 13:52:06;;;;;;;;;;;19.90;95.60;;;;;;5041779;28;19908;-83
2022/04/14 13:54:31;;;;;;;;;;;19.90;95.20;;;;;;5042291;28;19936;-83
2022/04/14 13:56:57;;;;;;;;;;;19.80;95.40;;;;;;5042501;28;20277;-83
2022/04/14 13:59:22;;;;;;;;;;;19.70;95.30;;;;;;5042937;28;19988;-83
2022/04/14 14:01:48;;;;;;;;;;;19.60;95.40;;;;;;5041861;28;19968;-83
2022/04/14 14:04:13;;;;;;;;;;;19.60;95.70;;;;;;5042730;28;19919;-83
2022/04/14 14:06:39;;;;;;;;;;;19.60;95.50;;;;;;5042940;28;19924;-83
2022/04/14 14:09:04;;;;;;;;;;;19.60;95.40;;;;;;5042490;28;20284;-83
2022/04/14 14:11:31;;;;;;;;;;;19.50;95.20;;;;;;5042325;28;20413;-84
2022/04/14 14:13:57;;;;;;;;;;;19.40;95.30;;;;;;5042449;28;21408;-83